Time;durP1;ratioP1;P1;durP2;ratioP2;P2;SDS_P1;SDS_P2;PMS_P1;PMS_P2;Temp;Humidity;BMP_temperature;BMP_pressure;BME280_temperature;BME280_humidity;BME280_pressure;Samples;Min_cycle;Max_cycle;Signal;HPM_P1;HPM_P2
2023/01/10 00:00:12;;;;;;;21.17;6.83;;;;;;;;;;4983558;28;20721;-70
2023/01/10 00:02:37;;;;;;;34.37;6.80;;;;;;;;;;4973768;28;20427;-70
2023/01/10 00:05:03;;;;;;;25.90;6.23;;;;;;;;;;4979877;28;20292;-69
2023/01/10 00:07:29;;;;;;;26.23;6.43;;;;;;;;;;4984817;28;20197;-69
2023/01/10 00:09:54;;;;;;;25.10;6.77;;;;;;;;;;4984827;28;20195;-69
2023/01/10 00:15:04;;;;;;;26.53;6.50;;;;;;;;;;4996326;28;20642;-69
2023/01/10 00:17:29;;;;;;;17.70;5.37;;;;;;;;;;4997341;28;20225;-70
2023/01/10 00:19:55;;;;;;;28.13;5.67;;;;;;;;;;4995902;28;20506;-70
2023/01/10 00:22:23;;;;;;;31.30;5.80;;;;;;;;;;4995417;28;20211;-69
2023/01/10 00:24:49;;;;;;;20.63;5.03;;;;;;;;;;4994932;28;20226;-69
2023/01/10 00:27:19;;;;;;;21.33;5.37;;;;;;;;;;4995244;28;20201;-69
2023/01/10 00:29:46;;;;;;;25.70;5.47;;;;;;;;;;4994284;28;20379;-70
2023/01/10 00:32:12;;;;;;;16.10;5.00;;;;;;;;;;4997609;28;20709;-69
2023/01/10 00:34:37;;;;;;;21.00;5.30;;;;;;;;;;4999962;28;20187;-70
2023/01/10 00:37:03;;;;;;;27.50;5.60;;;;;;;;;;4997356;28;20201;-69
2023/01/10 00:39:28;;;;;;;17.67;4.43;;;;;;;;;;4999269;28;20676;-70
2023/01/10 00:44:37;;;;;;;16.37;5.17;;;;;;;;;;4997555;28;20278;-69
2023/01/10 00:47:03;;;;;;;19.60;4.20;;;;;;;;;;4988377;28;20573;-68
2023/01/10 00:49:28;;;;;;;27.20;5.47;;;;;;;;;;4990308;28;20215;-68
2023/01/10 00:51:57;;;;;;;26.30;4.67;;;;;;;;;;4988802;28;20207;-68
2023/01/10 00:54:22;;;;;;;21.57;4.83;;;;;;;;;;4991394;28;20194;-68
2023/01/10 00:56:48;;;;;;;21.07;5.40;;;;;;;;;;4988076;28;20200;-69
2023/01/10 00:59:13;;;;;;;16.53;4.20;;;;;;;;;;4989700;28;20250;-69
2023/01/10 01:01:39;;;;;;;18.63;4.47;;;;;;;;;;4984974;28;20212;-69
2023/01/10 01:04:04;;;;;;;22.63;3.90;;;;;;;;;;4988508;28;20223;-69
2023/01/10 01:06:29;;;;;;;19.13;4.20;;;;;;;;;;4986513;28;20560;-69
2023/01/10 01:08:55;;;;;;;22.83;4.90;;;;;;;;;;4983424;28;20192;-69
2023/01/10 01:11:20;;;;;;;18.93;3.90;;;;;;;;;;4985830;28;20187;-69
2023/01/10 01:13:45;;;;;;;21.80;4.03;;;;;;;;;;4990451;28;20633;-69
2023/01/10 01:16:11;;;;;;;18.10;4.10;;;;;;;;;;4992200;28;20199;-69
2023/01/10 01:18:36;;;;;;;16.93;4.20;;;;;;;;;;4988070;28;20191;-68
2023/01/10 01:21:04;;;;;;;17.83;4.30;;;;;;;;;;4986197;28;20223;-68
2023/01/10 01:23:30;;;;;;;20.30;4.27;;;;;;;;;;5001335;28;20215;-68
2023/01/10 01:25:55;;;;;;;20.77;4.10;;;;;;;;;;4989668;28;20287;-70
2023/01/10 01:28:22;;;;;;;27.47;4.17;;;;;;;;;;4987947;28;20208;-69
2023/01/10 01:30:48;;;;;;;14.90;4.03;;;;;;;;;;4992979;28;20246;-69
2023/01/10 01:33:13;;;;;;;15.83;2.90;;;;;;;;;;4987964;28;20195;-68
2023/01/10 01:35:42;;;;;;;26.27;4.03;;;;;;;;;;4984974;28;20632;-68
2023/01/10 01:38:08;;;;;;;16.47;3.53;;;;;;;;;;4987930;28;20526;-68
2023/01/10 01:40:33;;;;;;;18.60;4.03;;;;;;;;;;4995358;28;20212;-68
2023/01/10 01:42:59;;;;;;;24.10;3.30;;;;;;;;;;4993672;28;20304;-68
2023/01/10 01:45:38;;;;;;;24.93;4.10;;;;;;;;;;4984235;28;20413;-68
2023/01/10 01:48:12;;;;;;;16.23;3.23;;;;;;;;;;4992629;28;20187;-69
2023/01/10 01:50:55;;;;;;;18.60;3.87;;;;;;;;;;4984817;28;20199;-69
2023/01/10 01:53:28;;;;;;;19.30;4.10;;;;;;;;;;4982042;28;20199;-68
2023/01/10 01:55:59;;;;;;;21.67;3.17;;;;;;;;;;4989137;28;20623;-69
2023/01/10 01:58:34;;;;;;;16.37;3.20;;;;;;;;;;4988891;28;20674;-69
2023/01/10 02:00:59;;;;;;;21.00;3.67;;;;;;;;;;4985615;28;20215;-69
2023/01/10 02:03:25;;;;;;;21.63;3.60;;;;;;;;;;4987294;28;20758;-68
2023/01/10 02:05:51;;;;;;;20.53;3.40;;;;;;;;;;4984860;28;20192;-69
2023/01/10 02:08:16;;;;;;;21.03;3.73;;;;;;;;;;4987786;28;20254;-69
2023/01/10 02:11:02;;;;;;;18.83;3.40;;;;;;;;;;4991253;28;20199;-69
2023/01/10 02:13:29;;;;;;;20.43;3.10;;;;;;;;;;4978137;28;20287;-69
2023/01/10 02:15:54;;;;;;;13.97;3.43;;;;;;;;;;4986154;28;20578;-69
2023/01/10 02:18:21;;;;;;;27.00;4.03;;;;;;;;;;4985106;28;20228;-68
2023/01/10 02:21:14;;;;;;;21.30;3.00;;;;;;;;;;4986264;28;20199;-69
2023/01/10 02:23:45;;;;;;;18.40;3.17;;;;;;;;;;4977153;28;20211;-68
2023/01/10 02:26:28;;;;;;;19.87;3.00;;;;;;;;;;4945552;28;1066096;-68
2023/01/10 02:29:30;;;;;;;20.90;3.53;;;;;;;;;;4985164;28;20203;-70
2023/01/10 02:32:16;;;;;;;26.27;3.47;;;;;;;;;;4984187;28;20281;-68
2023/01/10 02:34:59;;;;;;;14.57;3.27;;;;;;;;;;4992191;28;20183;-68
2023/01/10 02:37:52;;;;;;;19.03;3.00;;;;;;;;;;4995914;28;20265;-68
2023/01/10 02:40:20;;;;;;;19.63;3.37;;;;;;;;;;5002419;28;20287;-68
2023/01/10 02:42:57;;;;;;;25.47;3.67;;;;;;;;;;4990646;28;20215;-68
2023/01/10 02:45:46;;;;;;;14.23;3.27;;;;;;;;;;4988539;28;20198;-69
2023/01/10 02:48:11;;;;;;;14.13;2.87;;;;;;;;;;4993812;28;20195;-69
2023/01/10 02:50:48;;;;;;;21.20;3.23;;;;;;;;;;4999676;28;20191;-68
2023/01/10 02:53:26;;;;;;;18.20;3.17;;;;;;;;;;4994611;28;20191;-68
2023/01/10 02:56:11;;;;;;;16.57;3.20;;;;;;;;;;4982988;28;20207;-68
2023/01/10 02:59:14;;;;;;;24.73;3.63;;;;;;;;;;4988836;28;20269;-69
2023/01/10 03:01:55;;;;;;;20.20;3.30;;;;;;;;;;4985245;28;20667;-69
2023/01/10 03:04:37;;;;;;;15.87;2.97;;;;;;;;;;4988213;28;20226;-68
2023/01/10 03:07:14;;;;;;;20.83;3.53;;;;;;;;;;4990014;28;20487;-68
2023/01/10 03:10:06;;;;;;;18.67;3.17;;;;;;;;;;4988962;28;20199;-69
2023/01/10 03:12:43;;;;;;;18.40;3.17;;;;;;;;;;4982107;28;20663;-68
2023/01/10 03:15:13;;;;;;;20.47;3.10;;;;;;;;;;4979890;28;20729;-68
2023/01/10 03:17:40;;;;;;;12.63;3.10;;;;;;;;;;4990375;28;20249;-69
2023/01/10 03:20:06;;;;;;;17.67;3.57;;;;;;;;;;4991980;28;20187;-68
2023/01/10 03:22:36;;;;;;;15.70;3.13;;;;;;;;;;4986171;28;20234;-68
2023/01/10 03:25:05;;;;;;;19.83;3.10;;;;;;;;;;4993392;28;20703;-68
2023/01/10 03:28:02;;;;;;;19.37;3.20;;;;;;;;;;5002878;28;20201;-68
2023/01/10 03:30:31;;;;;;;17.87;2.70;;;;;;;;;;4985984;28;20196;-68
2023/01/10 03:32:58;;;;;;;18.40;3.00;;;;;;;;;;4979962;28;20179;-68
2023/01/10 03:35:52;;;;;;;25.40;3.20;;;;;;;;;;4990440;28;20214;-69
2023/01/10 03:38:30;;;;;;;19.97;2.90;;;;;;;;;;4990210;28;20191;-68
2023/01/10 03:41:05;;;;;;;15.37;2.73;;;;;;;;;;4997140;28;20201;-68
2023/01/10 03:46:57;;;;;;;13.20;2.37;;;;;;;;;;4984531;28;20206;-68
2023/01/10 03:49:24;;;;;;;20.13;3.17;;;;;;;;;;4986646;28;20633;-68
2023/01/10 03:51:50;;;;;;;22.60;3.47;;;;;;;;;;4991366;28;20671;-69
2023/01/10 03:54:16;;;;;;;16.60;3.10;;;;;;;;;;4982001;28;20224;-69
2023/01/10 03:56:47;;;;;;;19.00;3.23;;;;;;;;;;4993383;28;20612;-69
2023/01/10 03:59:13;;;;;;;18.97;3.47;;;;;;;;;;4993977;28;20196;-68
2023/01/10 04:01:38;;;;;;;20.67;3.50;;;;;;;;;;4983346;28;20843;-68
2023/01/10 04:04:03;;;;;;;18.53;3.60;;;;;;;;;;4982794;28;20242;-68
2023/01/10 04:06:29;;;;;;;20.30;3.10;;;;;;;;;;4989799;28;20616;-69
2023/01/10 04:08:54;;;;;;;21.97;3.13;;;;;;;;;;4981488;28;20689;-68
2023/01/10 04:11:20;;;;;;;17.07;3.10;;;;;;;;;;4993948;28;20298;-69
2023/01/10 04:13:45;;;;;;;16.40;3.47;;;;;;;;;;4999115;28;20198;-69
2023/01/10 04:16:10;;;;;;;19.80;3.30;;;;;;;;;;4995279;28;20243;-68
2023/01/10 04:18:37;;;;;;;17.67;3.13;;;;;;;;;;4987755;28;20285;-70
2023/01/10 04:21:03;;;;;;;20.70;3.50;;;;;;;;;;4990824;28;20199;-68
2023/01/10 04:23:28;;;;;;;23.67;3.73;;;;;;;;;;4985162;28;20277;-68
2023/01/10 04:25:53;;;;;;;15.97;3.43;;;;;;;;;;4990538;28;20231;-68
2023/01/10 04:28:19;;;;;;;18.50;3.13;;;;;;;;;;4982717;28;20547;-68
2023/01/10 04:30:44;;;;;;;18.07;3.27;;;;;;;;;;4989588;28;20203;-68
2023/01/10 04:33:11;;;;;;;21.53;3.50;;;;;;;;;;4981014;28;20191;-68
2023/01/10 04:35:36;;;;;;;17.40;2.80;;;;;;;;;;4985551;28;20232;-69
2023/01/10 04:38:02;;;;;;;22.03;3.33;;;;;;;;;;4990058;28;20260;-68
2023/01/10 04:40:27;;;;;;;16.00;3.17;;;;;;;;;;4996965;28;20326;-69
2023/01/10 04:42:53;;;;;;;16.37;3.40;;;;;;;;;;4997909;28;20763;-68
2023/01/10 04:45:20;;;;;;;14.93;3.00;;;;;;;;;;4996261;28;20192;-69
2023/01/10 04:47:50;;;;;;;16.83;2.93;;;;;;;;;;5000415;28;20720;-68
2023/01/10 04:50:15;;;;;;;24.97;3.20;;;;;;;;;;4997200;28;20206;-68
2023/01/10 04:52:42;;;;;;;19.37;3.57;;;;;;;;;;4989844;28;20187;-68
2023/01/10 04:55:08;;;;;;;18.57;2.77;;;;;;;;;;4987787;28;20188;-68
2023/01/10 04:57:33;;;;;;;20.90;2.87;;;;;;;;;;4986378;28;20199;-69
2023/01/10 04:59:59;;;;;;;20.37;2.93;;;;;;;;;;5002143;28;20269;-68
2023/01/10 05:02:24;;;;;;;17.13;3.00;;;;;;;;;;4991737;28;20198;-68
2023/01/10 05:04:49;;;;;;;19.83;3.67;;;;;;;;;;4996759;28;20636;-68
2023/01/10 05:07:15;;;;;;;16.33;3.30;;;;;;;;;;4993439;28;20187;-68
2023/01/10 05:09:41;;;;;;;15.90;3.03;;;;;;;;;;4993946;28;20208;-69
2023/01/10 05:12:07;;;;;;;22.20;3.07;;;;;;;;;;4995687;28;20207;-69
2023/01/10 05:14:32;;;;;;;20.97;3.97;;;;;;;;;;4992119;28;20257;-68
2023/01/10 05:16:58;;;;;;;23.73;3.70;;;;;;;;;;4985051;28;20508;-69
2023/01/10 05:19:23;;;;;;;20.00;3.53;;;;;;;;;;4987478;28;20278;-68
2023/01/10 05:21:51;;;;;;;32.50;3.90;;;;;;;;;;4979485;28;20199;-68
2023/01/10 05:24:16;;;;;;;23.03;5.63;;;;;;;;;;4990130;28;20211;-69
2023/01/10 05:26:42;;;;;;;19.70;3.77;;;;;;;;;;4988825;28;20588;-68
2023/01/10 05:29:10;;;;;;;21.10;3.70;;;;;;;;;;4995226;28;20180;-68
2023/01/10 05:31:35;;;;;;;19.00;3.67;;;;;;;;;;4987013;28;20191;-69
2023/01/10 05:34:01;;;;;;;17.33;3.50;;;;;;;;;;4983916;28;20274;-68
2023/01/10 05:36:26;;;;;;;18.10;4.20;;;;;;;;;;4987929;28;20191;-68
2023/01/10 05:38:52;;;;;;;24.50;4.23;;;;;;;;;;4992834;28;20208;-68
2023/01/10 05:41:17;;;;;;;16.97;4.33;;;;;;;;;;4985285;28;20742;-68
2023/01/10 05:43:42;;;;;;;21.23;4.63;;;;;;;;;;4981295;28;20208;-69
2023/01/10 05:46:08;;;;;;;25.00;5.13;;;;;;;;;;4988505;28;20306;-68
2023/01/10 05:48:34;;;;;;;31.63;6.00;;;;;;;;;;5003292;28;20675;-69
2023/01/10 05:50:59;;;;;;;26.77;5.33;;;;;;;;;;4989494;28;20266;-69
2023/01/10 05:53:25;;;;;;;17.77;4.67;;;;;;;;;;4988129;28;20187;-69
2023/01/10 05:55:59;;;;;;;25.67;5.70;;;;;;;;;;4990389;28;20205;-69
2023/01/10 05:58:25;;;;;;;21.43;4.87;;;;;;;;;;4994497;28;20194;-69
2023/01/10 06:00:50;;;;;;;21.57;4.97;;;;;;;;;;5000445;28;20289;-69
2023/01/10 06:03:17;;;;;;;22.00;5.57;;;;;;;;;;4987538;28;20750;-69
2023/01/10 06:05:42;;;;;;;21.60;5.37;;;;;;;;;;4990328;28;20188;-69
2023/01/10 06:08:08;;;;;;;22.50;5.53;;;;;;;;;;4987536;28;20218;-69
2023/01/10 06:10:33;;;;;;;26.03;6.27;;;;;;;;;;4981076;28;20192;-69
2023/01/10 06:12:59;;;;;;;23.67;6.03;;;;;;;;;;4994399;28;20749;-68
2023/01/10 06:15:25;;;;;;;27.77;6.97;;;;;;;;;;5002459;28;20206;-69
2023/01/10 06:17:50;;;;;;;19.57;6.27;;;;;;;;;;4990461;28;20196;-69
2023/01/10 06:20:16;;;;;;;19.40;6.07;;;;;;;;;;4995933;28;20201;-69
2023/01/10 06:22:42;;;;;;;25.30;6.70;;;;;;;;;;4984126;28;20251;-69
2023/01/10 06:25:12;;;;;;;26.40;6.73;;;;;;;;;;4987831;28;20253;-69
2023/01/10 06:27:39;;;;;;;19.53;7.33;;;;;;;;;;4998224;28;20188;-69
2023/01/10 06:30:05;;;;;;;23.03;8.13;;;;;;;;;;4983199;28;20312;-69
2023/01/10 06:32:31;;;;;;;25.60;8.30;;;;;;;;;;4980677;28;20611;-70
2023/01/10 06:34:56;;;;;;;25.57;7.80;;;;;;;;;;4989006;28;20203;-69
2023/01/10 06:37:21;;;;;;;27.33;7.90;;;;;;;;;;4985167;28;20202;-69
2023/01/10 06:39:47;;;;;;;25.67;8.63;;;;;;;;;;4985488;28;20191;-70
2023/01/10 06:42:12;;;;;;;26.87;8.00;;;;;;;;;;4981381;28;20188;-68
2023/01/10 06:44:38;;;;;;;29.73;8.17;;;;;;;;;;4986161;28;20291;-68
2023/01/10 06:47:03;;;;;;;21.33;7.80;;;;;;;;;;4982436;28;20575;-70
2023/01/10 06:49:29;;;;;;;28.43;8.40;;;;;;;;;;4982506;28;20184;-68
2023/01/10 06:51:54;;;;;;;29.13;8.77;;;;;;;;;;4985848;28;20682;-69
2023/01/10 06:54:20;;;;;;;24.93;7.70;;;;;;;;;;4978988;28;20200;-68
2023/01/10 06:56:48;;;;;;;32.67;8.27;;;;;;;;;;4979337;28;20270;-68
2023/01/10 06:59:14;;;;;;;24.30;7.87;;;;;;;;;;4985778;28;20200;-68
2023/01/10 07:01:39;;;;;;;35.27;9.07;;;;;;;;;;4988858;28;20226;-68
2023/01/10 07:04:05;;;;;;;31.93;8.47;;;;;;;;;;4984764;28;20223;-68
2023/01/10 07:06:31;;;;;;;25.13;7.93;;;;;;;;;;4990927;28;20195;-69
2023/01/10 07:08:56;;;;;;;30.03;8.80;;;;;;;;;;4990019;28;20199;-69
2023/01/10 07:11:22;;;;;;;30.73;8.80;;;;;;;;;;4990001;28;20257;-69
2023/01/10 07:13:47;;;;;;;28.67;8.37;;;;;;;;;;4984298;28;20214;-69
2023/01/10 07:16:15;;;;;;;38.07;9.03;;;;;;;;;;4995715;28;20694;-69
2023/01/10 07:18:42;;;;;;;31.13;8.73;;;;;;;;;;4998078;28;20188;-69
2023/01/10 07:21:08;;;;;;;33.37;8.37;;;;;;;;;;5006095;28;20281;-69
2023/01/10 07:23:33;;;;;;;28.10;8.70;;;;;;;;;;4998969;28;20305;-69
2023/01/10 07:26:04;;;;;;;25.63;8.10;;;;;;;;;;5003397;28;20365;-69
2023/01/10 07:28:30;;;;;;;35.77;8.43;;;;;;;;;;4988356;28;20198;-69
2023/01/10 07:31:03;;;;;;;40.00;9.97;;;;;;;;;;4990165;28;20199;-69
2023/01/10 07:33:30;;;;;;;33.40;8.20;;;;;;;;;;4984262;28;20195;-69
2023/01/10 07:35:55;;;;;;;32.07;8.50;;;;;;;;;;4986931;28;20192;-69
2023/01/10 07:38:20;;;;;;;32.60;8.80;;;;;;;;;;4982834;28;20203;-68
2023/01/10 07:40:46;;;;;;;27.93;8.33;;;;;;;;;;4995156;28;20196;-69
2023/01/10 07:43:11;;;;;;;30.27;8.67;;;;;;;;;;4988333;28;20625;-69
2023/01/10 07:45:36;;;;;;;30.00;8.77;;;;;;;;;;4985739;28;20191;-69
2023/01/10 07:48:03;;;;;;;28.97;8.50;;;;;;;;;;4991627;28;20188;-69
2023/01/10 07:50:32;;;;;;;37.20;8.77;;;;;;;;;;4991348;28;20275;-69
2023/01/10 07:52:58;;;;;;;32.97;8.73;;;;;;;;;;4992796;28;20191;-69
2023/01/10 07:55:24;;;;;;;32.17;8.57;;;;;;;;;;4996433;28;20187;-69
2023/01/10 07:57:50;;;;;;;30.80;9.37;;;;;;;;;;5001737;28;20601;-69
2023/01/10 08:00:17;;;;;;;34.97;8.70;;;;;;;;;;4979609;28;20289;-69
2023/01/10 08:02:42;;;;;;;35.13;8.97;;;;;;;;;;4989389;28;20211;-69
2023/01/10 08:05:09;;;;;;;32.63;8.77;;;;;;;;;;4983719;28;20199;-68
2023/01/10 08:07:35;;;;;;;40.90;9.20;;;;;;;;;;4998955;28;20700;-69
2023/01/10 08:10:01;;;;;;;27.17;8.33;;;;;;;;;;4988673;28;20227;-69
2023/01/10 08:12:26;;;;;;;41.53;8.37;;;;;;;;;;4997337;28;20630;-69
2023/01/10 08:14:52;;;;;;;32.10;8.43;;;;;;;;;;4990887;28;20203;-69
2023/01/10 08:17:18;;;;;;;21.03;6.83;;;;;;;;;;4997846;28;20237;-69
2023/01/10 08:19:43;;;;;;;34.70;7.53;;;;;;;;;;4998492;28;20202;-69
2023/01/10 08:22:09;;;;;;;28.00;7.70;;;;;;;;;;4997237;28;20209;-69
2023/01/10 08:24:34;;;;;;;31.20;7.73;;;;;;;;;;4989208;28;20242;-69
2023/01/10 08:27:00;;;;;;;34.30;8.00;;;;;;;;;;4993305;28;20212;-69
2023/01/10 08:29:27;;;;;;;41.70;8.67;;;;;;;;;;4985493;28;20249;-69
2023/01/10 08:31:52;;;;;;;31.83;7.63;;;;;;;;;;4984167;28;20198;-68
2023/01/10 08:34:18;;;;;;;32.77;7.53;;;;;;;;;;4979890;28;20278;-69
2023/01/10 08:36:43;;;;;;;25.77;7.40;;;;;;;;;;5003758;28;20201;-70
2023/01/10 08:39:09;;;;;;;36.70;7.47;;;;;;;;;;5005669;28;20195;-69
2023/01/10 08:41:34;;;;;;;40.90;7.97;;;;;;;;;;5003492;28;21078;-69
2023/01/10 08:44:00;;;;;;;27.27;7.83;;;;;;;;;;4987532;28;20220;-69
2023/01/10 08:46:25;;;;;;;33.93;7.30;;;;;;;;;;4988371;28;20230;-69
2023/01/10 08:48:51;;;;;;;30.47;6.47;;;;;;;;;;4991727;28;20275;-70
2023/01/10 08:51:17;;;;;;;37.83;8.17;;;;;;;;;;4991721;28;20635;-69
2023/01/10 08:53:42;;;;;;;34.10;6.47;;;;;;;;;;4996719;28;20666;-69
2023/01/10 08:56:08;;;;;;;25.07;6.67;;;;;;;;;;5005662;28;20447;-69
2023/01/10 08:58:34;;;;;;;28.40;6.97;;;;;;;;;;5008517;28;20198;-69
2023/01/10 09:01:03;;;;;;;30.00;7.00;;;;;;;;;;5003569;28;20262;-69
2023/01/10 09:03:28;;;;;;;29.97;5.83;;;;;;;;;;4996534;28;20317;-68
2023/01/10 09:05:54;;;;;;;21.87;5.93;;;;;;;;;;5009628;28;20187;-69
2023/01/10 09:08:19;;;;;;;33.53;6.20;;;;;;;;;;5006149;28;20195;-69
2023/01/10 09:10:45;;;;;;;30.83;5.93;;;;;;;;;;5004049;28;20195;-69
2023/01/10 09:13:10;;;;;;;36.93;5.83;;;;;;;;;;5006623;28;20427;-69
2023/01/10 09:15:37;;;;;;;25.60;5.67;;;;;;;;;;5007210;28;20249;-69
2023/01/10 09:18:05;;;;;;;29.67;5.37;;;;;;;;;;5004846;28;20199;-68
2023/01/10 09:20:33;;;;;;;21.23;5.10;;;;;;;;;;5005017;28;20206;-69
2023/01/10 09:22:59;;;;;;;30.80;5.83;;;;;;;;;;5010309;28;20277;-68
2023/01/10 09:25:25;;;;;;;37.40;6.43;;;;;;;;;;4990553;28;20305;-69
2023/01/10 09:27:56;;;;;;;31.70;6.00;;;;;;;;;;4992400;28;20273;-69
2023/01/10 09:30:22;;;;;;;25.53;4.70;;;;;;;;;;4983327;28;20550;-68
2023/01/10 09:32:51;;;;;;;38.83;6.90;;;;;;;;;;4996946;28;20188;-69
2023/01/10 09:35:16;;;;;;;27.20;4.90;;;;;;;;;;4997547;28;20187;-66
2023/01/10 09:37:41;;;;;;;28.13;5.90;;;;;;;;;;5009010;28;20563;-68
2023/01/10 09:40:14;;;;;;;23.40;4.70;;;;;;;;;;5000841;28;20198;-67
2023/01/10 09:43:01;;;;;;;26.33;4.93;;;;;;;;;;4999552;28;20255;-67
2023/01/10 09:45:32;;;;;;;25.90;6.03;;;;;;;;;;5000314;28;20191;-68
2023/01/10 09:48:04;;;;;;;27.47;5.40;;;;;;;;;;5006319;28;20190;-68
2023/01/10 09:50:39;;;;;;;21.87;4.53;;;;;;;;;;5002014;28;20214;-67
2023/01/10 09:53:19;;;;;;;27.73;6.60;;;;;;;;;;5004870;28;20195;-68
2023/01/10 09:55:50;;;;;;;30.43;5.33;;;;;;;;;;5005043;28;20248;-67
2023/01/10 09:58:18;;;;;;;33.37;4.77;;;;;;;;;;5004143;28;20291;-67
2023/01/10 10:01:10;;;;;;;25.10;4.53;;;;;;;;;;5004581;28;20230;-67
2023/01/10 10:03:40;;;;;;;28.37;4.90;;;;;;;;;;4971125;28;20227;-67
2023/01/10 10:06:10;;;;;;;31.03;5.97;;;;;;;;;;4987017;28;20191;-67
2023/01/10 10:08:36;;;;;;;28.77;5.10;;;;;;;;;;4991378;28;20191;-67
2023/01/10 10:11:24;;;;;;;28.87;5.63;;;;;;;;;;4984925;28;20554;-67
2023/01/10 10:14:08;;;;;;;23.67;4.30;;;;;;;;;;4974422;28;20207;-68
2023/01/10 10:16:50;;;;;;;33.53;5.13;;;;;;;;;;4983742;28;20195;-67
2023/01/10 10:19:26;;;;;;;24.07;4.73;;;;;;;;;;4980142;28;20202;-67
2023/01/10 10:22:16;;;;;;;21.70;4.47;;;;;;;;;;4992551;28;20282;-67
2023/01/10 10:25:15;;;;;;;24.17;4.70;;;;;;;;;;4975806;28;20247;-67
2023/01/10 10:27:56;;;;;;;28.87;4.67;;;;;;;;;;4989975;28;20620;-67
2023/01/10 10:30:27;;;;;;;27.63;4.20;;;;;;;;;;4988345;28;20195;-67
2023/01/10 10:33:28;;;;;;;23.67;4.60;;;;;;;;;;4991315;28;20214;-67
2023/01/10 10:36:10;;;;;;;20.60;4.13;;;;;;;;;;4979867;28;20287;-67
2023/01/10 10:38:44;;;;;;;29.07;4.97;;;;;;;;;;5002670;28;20199;-67
2023/01/10 10:41:16;;;;;;;27.70;4.07;;;;;;;;;;4979471;28;20561;-67
2023/01/10 10:43:44;;;;;;;27.20;5.23;;;;;;;;;;4989928;28;20199;-67
2023/01/10 10:46:14;;;;;;;28.97;4.13;;;;;;;;;;4986731;28;20663;-67
2023/01/10 10:49:07;;;;;;;19.70;4.37;;;;;;;;;;4992561;28;20203;-67
2023/01/10 10:51:46;;;;;;;37.17;4.73;;;;;;;;;;4992572;28;20666;-67
2023/01/10 10:54:13;;;;;;;25.17;4.27;;;;;;;;;;4979393;28;20705;-67
2023/01/10 10:56:39;;;;;;;22.10;4.50;;;;;;;;;;4994619;28;20184;-68
2023/01/10 10:59:23;;;;;;;24.27;4.77;;;;;;;;;;4989563;28;20194;-67
2023/01/10 11:01:50;;;;;;;26.40;4.77;;;;;;;;;;4988357;28;20188;-67
2023/01/10 11:04:19;;;;;;;33.37;4.67;;;;;;;;;;4991653;28;20207;-67
2023/01/10 11:06:48;;;;;;;25.73;4.40;;;;;;;;;;4990586;28;20219;-67
2023/01/10 11:09:39;;;;;;;22.80;4.07;;;;;;;;;;4978248;28;20217;-66
2023/01/10 11:12:08;;;;;;;18.27;3.43;;;;;;;;;;4986973;28;20234;-67
2023/01/10 11:14:49;;;;;;;24.27;4.77;;;;;;;;;;5004089;28;20187;-67
2023/01/10 11:17:22;;;;;;;24.63;3.87;;;;;;;;;;5005627;28;20194;-67
2023/01/10 11:19:56;;;;;;;23.10;4.07;;;;;;;;;;4994981;28;20603;-68
2023/01/10 11:22:23;;;;;;;20.03;4.90;;;;;;;;;;4997540;28;20187;-68
2023/01/10 11:24:56;;;;;;;20.33;3.47;;;;;;;;;;4984815;28;20338;-67
2023/01/10 11:27:26;;;;;;;23.60;4.70;;;;;;;;;;5000004;28;20190;-68
2023/01/10 11:29:55;;;;;;;28.77;4.40;;;;;;;;;;4985091;28;20652;-67
2023/01/10 11:32:31;;;;;;;22.03;4.13;;;;;;;;;;4997893;28;20243;-67
2023/01/10 11:35:00;;;;;;;21.63;5.10;;;;;;;;;;4978698;28;20192;-67
2023/01/10 11:37:31;;;;;;;26.37;4.30;;;;;;;;;;4988308;28;20195;-67
2023/01/10 11:40:23;;;;;;;24.10;4.37;;;;;;;;;;4986757;28;20584;-67
2023/01/10 11:42:50;;;;;;;26.10;4.50;;;;;;;;;;4983527;28;20212;-67
2023/01/10 11:45:18;;;;;;;27.30;4.23;;;;;;;;;;4979585;28;20238;-67
2023/01/10 11:47:58;;;;;;;25.87;4.53;;;;;;;;;;4997720;28;20191;-67
2023/01/10 11:50:26;;;;;;;26.17;4.20;;;;;;;;;;4990419;28;20198;-67
2023/01/10 11:52:53;;;;;;;19.60;4.47;;;;;;;;;;5000032;28;20184;-67
2023/01/10 11:55:24;;;;;;;26.73;4.77;;;;;;;;;;5003715;28;20186;-68
2023/01/10 11:58:01;;;;;;;21.67;4.27;;;;;;;;;;4995429;28;20283;-67
2023/01/10 12:00:49;;;;;;;22.13;4.00;;;;;;;;;;4984129;28;20223;-68
2023/01/10 12:03:27;;;;;;;20.90;4.43;;;;;;;;;;4988197;28;20625;-68
2023/01/10 12:05:58;;;;;;;26.40;5.03;;;;;;;;;;4989851;28;20612;-67
2023/01/10 12:08:27;;;;;;;23.53;4.47;;;;;;;;;;4999277;28;20188;-66
2023/01/10 12:11:29;;;;;;;28.40;4.60;;;;;;;;;;4997979;28;20186;-66
2023/01/10 12:14:00;;;;;;;24.23;4.27;;;;;;;;;;4987207;28;20245;-67
2023/01/10 12:16:30;;;;;;;21.63;4.60;;;;;;;;;;4983939;28;20571;-67
2023/01/10 12:19:06;;;;;;;24.67;4.03;;;;;;;;;;4994019;28;20274;-67
2023/01/10 12:21:36;;;;;;;31.83;5.63;;;;;;;;;;4978861;28;20194;-67
2023/01/10 12:24:16;;;;;;;26.57;4.23;;;;;;;;;;4984607;28;20287;-67
2023/01/10 12:26:42;;;;;;;25.63;4.87;;;;;;;;;;4988441;28;20192;-67
2023/01/10 12:29:15;;;;;;;28.27;4.40;;;;;;;;;;4990660;28;20638;-68
2023/01/10 12:31:40;;;;;;;21.77;3.83;;;;;;;;;;4986916;28;20222;-66
2023/01/10 12:34:43;;;;;;;22.37;3.60;;;;;;;;;;4994415;28;20661;-66
2023/01/10 12:37:28;;;;;;;27.03;4.17;;;;;;;;;;4981780;28;20753;-66
2023/01/10 12:40:02;;;;;;;24.63;4.03;;;;;;;;;;4991737;28;20615;-66
2023/01/10 12:45:45;;;;;;;25.70;4.77;;;;;;;;;;4992327;28;20194;-66
2023/01/10 12:48:22;;;;;;;23.50;3.90;;;;;;;;;;4993303;28;20206;-66
2023/01/10 12:51:00;;;;;;;22.67;4.43;;;;;;;;;;4980426;28;20195;-66
2023/01/10 12:53:39;;;;;;;14.83;3.13;;;;;;;;;;4998754;28;20183;-67
2023/01/10 12:56:15;;;;;;;31.77;5.03;;;;;;;;;;4983350;28;20219;-68
2023/01/10 12:58:45;;;;;;;21.53;4.23;;;;;;;;;;4979327;28;20199;-67
2023/01/10 13:01:18;;;;;;;22.20;4.60;;;;;;;;;;4979621;28;20208;-67
2023/01/10 13:03:49;;;;;;;21.27;4.30;;;;;;;;;;4985933;28;20658;-66
2023/01/10 13:06:28;;;;;;;24.80;4.57;;;;;;;;;;4985005;28;20611;-66
2023/01/10 13:08:54;;;;;;;21.10;3.57;;;;;;;;;;4982905;28;20210;-66
2023/01/10 13:11:23;;;;;;;25.47;4.90;;;;;;;;;;4996184;28;20274;-66
2023/01/10 13:13:55;;;;;;;19.80;4.07;;;;;;;;;;4990875;28;20194;-66
2023/01/10 13:16:44;;;;;;;24.20;4.00;;;;;;;;;;4992676;28;20647;-66
2023/01/10 13:19:09;;;;;;;24.70;4.40;;;;;;;;;;4980355;28;20187;-66
2023/01/10 13:21:36;;;;;;;20.40;4.33;;;;;;;;;;4981022;28;20202;-67
2023/01/10 13:24:05;;;;;;;21.87;3.93;;;;;;;;;;4998487;28;20199;-67
2023/01/10 13:26:51;;;;;;;22.93;3.97;;;;;;;;;;4987330;28;20236;-67
2023/01/10 13:29:25;;;;;;;20.33;3.90;;;;;;;;;;5003167;28;20198;-67
2023/01/10 13:31:56;;;;;;;23.50;4.10;;;;;;;;;;4984363;28;20190;-66
2023/01/10 13:34:25;;;;;;;27.07;4.73;;;;;;;;;;4981550;28;20335;-67
2023/01/10 13:36:56;;;;;;;27.43;3.87;;;;;;;;;;4977057;28;20191;-67
2023/01/10 13:39:38;;;;;;;19.40;3.60;;;;;;;;;;4995911;28;20218;-67
2023/01/10 13:45:00;;;;;;;29.90;4.13;;;;;;;;;;4998059;28;20230;-67
2023/01/10 13:47:38;;;;;;;19.10;3.63;;;;;;;;;;4983925;28;20250;-67
2023/01/10 13:50:33;;;;;;;20.77;3.97;;;;;;;;;;4990005;28;20381;-67
2023/01/10 13:53:01;;;;;;;24.13;3.83;;;;;;;;;;4993897;28;20199;-67
2023/01/10 13:55:41;;;;;;;24.13;4.10;;;;;;;;;;5002355;28;20195;-67
2023/01/10 13:58:12;;;;;;;24.53;4.03;;;;;;;;;;4988293;28;20198;-67
2023/01/10 14:03:39;;;;;;;19.67;3.47;;;;;;;;;;4992412;28;20214;-67
2023/01/10 14:06:13;;;;;;;30.37;4.50;;;;;;;;;;4986640;28;20194;-67
2023/01/10 14:08:40;;;;;;;20.80;3.00;;;;;;;;;;4980181;28;20254;-67
2023/01/10 14:11:09;;;;;;;16.73;3.63;;;;;;;;;;4987814;28;20195;-67
2023/01/10 14:13:35;;;;;;;22.50;2.70;;;;;;;;;;5003263;28;20726;-67
2023/01/10 14:16:01;;;;;;;16.37;3.47;;;;;;;;;;4987979;28;20199;-67
2023/01/10 14:18:41;;;;;;;23.60;3.80;;;;;;;;;;5001761;28;20656;-67
2023/01/10 14:21:08;;;;;;;18.97;3.80;;;;;;;;;;4996506;28;20270;-66
2023/01/10 14:23:40;;;;;;;20.77;4.00;;;;;;;;;;4994361;28;20214;-66
2023/01/10 14:26:08;;;;;;;21.07;3.37;;;;;;;;;;5000123;28;20335;-66
2023/01/10 14:28:34;;;;;;;15.70;3.10;;;;;;;;;;5004922;28;20234;-66
2023/01/10 14:31:08;;;;;;;22.40;4.03;;;;;;;;;;5005869;28;20234;-66
2023/01/10 14:33:35;;;;;;;22.70;3.60;;;;;;;;;;4985424;28;20698;-66
2023/01/10 14:36:07;;;;;;;23.17;4.67;;;;;;;;;;4981667;28;20195;-66
2023/01/10 14:38:34;;;;;;;16.03;3.43;;;;;;;;;;4989316;28;20200;-66
2023/01/10 14:41:25;;;;;;;20.23;3.50;;;;;;;;;;4991350;28;20211;-66
2023/01/10 14:43:58;;;;;;;26.63;3.73;;;;;;;;;;4989972;28;20578;-67
2023/01/10 14:46:42;;;;;;;18.83;3.53;;;;;;;;;;4987601;28;20190;-67
2023/01/10 14:49:50;;;;;;;24.63;3.50;;;;;;;;;;5008240;28;20277;-67
2023/01/10 14:52:24;;;;;;;23.87;3.60;;;;;;;;;;4997196;28;20302;-66
2023/01/10 14:55:09;;;;;;;23.03;3.10;;;;;;;;;;4998065;28;20604;-67
2023/01/10 14:57:34;;;;;;;17.60;2.77;;;;;;;;;;4998653;28;20194;-66
2023/01/10 15:00:06;;;;;;;17.90;3.03;;;;;;;;;;4998166;28;20211;-66
2023/01/10 15:02:31;;;;;;;21.23;2.90;;;;;;;;;;4981840;28;20192;-66
2023/01/10 15:04:58;;;;;;;22.40;3.07;;;;;;;;;;4984692;28;20298;-68
2023/01/10 15:07:25;;;;;;;19.13;2.57;;;;;;;;;;5004081;28;20277;-66